Brent, United Kingdom
Current Conditions -  °F | °C
As of 10:50 AM on Friday 31 Oct 2014 (Local Time) from EGWU Reporting Station
Clear Clear  
Wind Chill: 66°   Ceiling: Unl
Heat Index: 66°   Visibility: 6mi
Dew Point: 57°   Wind: 7mph
Humidity: 73%   Direction: 160°SSE
Pressure: 30.03"   Gusts: NA
Location:  51.55°N, 0.3°W
Report Text: EGWU 311050Z 16006KT CAVOK 19/14 Q1017 BLU NOSIG
Loading
Personal Weather Stations






























Interactive Weather Map New forecast layout! Learn more

10-Day Weather Forecast

Advertisements
Track Severe Weather on mobile